• Join FlightAware (Why Join?)
  • Login
  • US Flag 
Trick or treat! (Boo!!) 
12:27PM EDT


 

Airport Tracker/Info


-or-


 

Live Flight TrackerFlight Track Log ✈ THY2339 ✈ 18-Jul-2013 ✈ LTBJ / ADB - LTBA / IST

Flight Track Log - Related Links

Times and Time Zones

All times are in EDT time to prevent confusion due to time zone crossing. See the THY2339 flight status page for this flight to view local times or setup timezone preferences in your user account.

Time Position Orientation Groundspeed Altitude Reporting Facility
EDT Latitude Longitude Course Direction KTS MPH feet Rate Location/Type
03:03PM 38.7942 27.4573 25° Northeast  Level Estimated
03:04PM 38.8569 27.4952 25° Northeast  Level Estimated
03:05PM 38.9196 27.5331 25° Northeast  Level Estimated
03:06PM 38.9822 27.5711 25° Northeast  Level Estimated
03:07PM 39.0448 27.6091 25° Northeast  Level Estimated
03:08PM 39.1075 27.6472 25° Northeast  Level Estimated
03:09PM 39.1701 27.6854 25° Northeast  Level Estimated
03:10PM 39.2327 27.7236 25° Northeast  Level Estimated
03:11PM 39.2953 27.7619 25° Northeast  Level Estimated
03:12PM 39.3578 27.8003 25° Northeast  Level Estimated
03:13PM 39.4204 27.8388 25° Northeast  Level Estimated
03:14PM 39.4830 27.8773 25° Northeast  Level Estimated
03:15PM 39.5455 27.9159 25° Northeast  Level Estimated
03:16PM 39.6080 27.9545 25° Northeast  Level Estimated
03:17PM 39.6705 27.9933 25° Northeast  Level Estimated
03:18PM 39.7330 28.0321 26° Northeast  Level Estimated
03:19PM 39.7955 28.0709 26° Northeast  Level Estimated
03:20PM 39.8580 28.1099 26° Northeast  Level Estimated
03:21PM 39.9204 28.1489 26° Northeast  Level Estimated
03:22PM 39.9829 28.1880 26° Northeast  Level Estimated
03:23PM 40.0453 28.2271 26° Northeast  Level Estimated
03:24PM 40.1077 28.2664 26° Northeast  Level Estimated
03:25PM 40.1702 28.3057 26° Northeast  Level Estimated
03:26PM 40.2326 28.3451 26° Northeast  Level Estimated
03:27PM 40.2949 28.3845 26° Northeast  Level Estimated
03:28PM 40.3573 28.4240 26° Northeast  Level Estimated
03:29PM 40.4197 28.4636 26° Northeast  Level Estimated
03:30PM 40.4820 28.5033 26° Northeast  Level Estimated
03:31PM 40.5443 28.5430 26° Northeast  Level Estimated
03:32PM 40.6066 28.5828 26° Northeast  Level Estimated
03:33PM 40.6689 28.6227 26° Northeast  Level Estimated
03:34PM 40.7312 28.6627 26° Northeast  Level Estimated
03:35PM 40.7935 28.7027 26° Northeast  Level Estimated
03:36PM 40.8558 28.7428 26° Northeast  Level Estimated
03:37PM 40.9180 28.7830 26° Northeast  Level Estimated
03:38PM 40.9769 28.8211 26° Northeast  Level Estimated
03:39PM 40.9769 28.8211 21° North  Level Estimated
03:40PM 40.9769 28.8211 21° North  Level Estimated
03:41PM 40.9769 28.8211 21° North  Level Estimated
03:42PM 40.9769 28.8211 21° North  Level Estimated
03:43PM 40.9769 28.8211 21° North  Level Estimated
03:44PM 40.9769 28.8211 21° North  Level Estimated
03:45PM 40.9769 28.8211 21° North  Level Estimated
03:46PM 40.9769 28.8211 21° North  Level Estimated
03:47PM 40.9769 28.8211 21° North  Level Estimated
03:48PM 40.9769 28.8211 21° North  Level Estimated
03:49PM 40.9769 28.8211 21° North  Level Estimated
03:50PM 40.9769 28.8211 21° North  Level Estimated
03:51PM 40.9769 28.8211 21° North  Level Estimated
03:52PM 40.9769 28.8211 21° North  Level Estimated
03:53PM 40.9769 28.8211 21° North  Level Estimated
03:54PM 40.9769 28.8211 21° North  Level Estimated